createdAt,value
2023-03-02T00:01:52.135Z,68.41
2023-03-02T00:04:46.444Z,68.11
2023-03-02T00:07:22.616Z,68.43
2023-03-02T00:09:49.108Z,68.86
2023-03-02T00:12:15.965Z,68.93
2023-03-02T00:14:42.761Z,69.29
2023-03-02T00:17:09.502Z,69.25
2023-03-02T00:19:36.480Z,69.25
2023-03-02T00:22:04.164Z,69.36
2023-03-02T00:24:30.786Z,69.49
2023-03-02T00:26:57.381Z,69.42
2023-03-02T00:29:23.979Z,69.65
2023-03-02T00:31:50.797Z,69.53
2023-03-02T00:34:17.520Z,69.69
2023-03-02T00:36:44.275Z,69.70
2023-03-02T00:39:10.965Z,69.50
2023-03-02T00:41:37.532Z,69.50
2023-03-02T00:44:04.224Z,69.49
2023-03-02T00:46:31.664Z,69.49
2023-03-02T00:48:58.987Z,69.28
2023-03-02T00:51:25.513Z,69.37
2023-03-02T00:53:52.123Z,69.29
2023-03-02T00:56:18.600Z,69.66
2023-03-02T00:58:48.966Z,69.82
2023-03-02T01:01:18.516Z,69.89
2023-03-02T01:03:48.552Z,70.06
2023-03-02T01:06:18.260Z,70.08
2023-03-02T01:08:45.044Z,70.00
2023-03-02T01:11:23.992Z,69.97
2023-03-02T01:13:51.099Z,70.13
2023-03-02T01:16:17.827Z,70.33
2023-03-02T01:18:44.511Z,70.29
2023-03-02T01:21:15.835Z,70.21
2023-03-02T01:23:43.055Z,70.21
2023-03-02T01:26:09.773Z,70.14
2023-03-02T01:28:36.391Z,70.08
2023-03-02T01:31:02.879Z,70.10
2023-03-02T01:33:29.490Z,69.91
2023-03-02T01:35:56.221Z,70.03
2023-03-02T01:38:23.028Z,69.84
2023-03-02T01:40:49.670Z,69.89
2023-03-02T01:43:16.773Z,69.72
2023-03-02T01:45:52.720Z,69.38
2023-03-02T01:48:31.502Z,69.54
2023-03-02T01:50:58.819Z,69.75
2023-03-02T01:53:31.365Z,69.32
2023-03-02T01:56:02.213Z,69.94
2023-03-02T01:58:34.352Z,69.44
2023-03-02T02:01:01.312Z,69.96
2023-03-02T02:03:30.526Z,69.71
2023-03-02T02:06:10.212Z,69.30
2023-03-02T02:08:38.917Z,69.99
2023-03-02T02:11:06.442Z,70.05
2023-03-02T02:13:33.109Z,70.08
2023-03-02T02:15:59.848Z,70.08
2023-03-02T02:18:26.999Z,70.15
2023-03-02T02:20:55.201Z,70.32
2023-03-02T02:23:27.488Z,69.34
2023-03-02T02:25:54.055Z,70.72
2023-03-02T02:28:29.418Z,70.41
2023-03-02T02:31:09.077Z,70.61
2023-03-02T02:33:37.895Z,71.17
2023-03-02T02:36:15.466Z,70.81
2023-03-02T02:38:45.801Z,71.14
2023-03-02T02:41:20.519Z,70.84
2023-03-02T02:43:47.917Z,71.13
2023-03-02T02:46:14.566Z,71.07
2023-03-02T02:48:41.358Z,71.04
2023-03-02T02:51:10.842Z,70.86
2023-03-02T02:53:45.169Z,70.37
2023-03-02T02:56:13.648Z,70.56
2023-03-02T02:58:49.473Z,70.12
2023-03-02T03:01:19.104Z,70.64
2023-03-02T03:03:51.650Z,70.37
2023-03-02T03:06:20.515Z,70.32
2023-03-02T03:08:46.961Z,70.50
2023-03-02T03:11:23.369Z,70.19
2023-03-02T03:14:10.531Z,69.34
2023-03-02T03:16:39.917Z,70.09
2023-03-02T03:19:15.683Z,69.61
2023-03-02T03:21:42.287Z,70.11
2023-03-02T03:24:08.991Z,70.24
2023-03-02T03:26:35.727Z,70.06
2023-03-02T03:29:04.186Z,70.22
2023-03-02T03:31:30.984Z,70.01
2023-03-02T03:33:57.815Z,70.16
2023-03-02T03:36:24.481Z,70.41
2023-03-02T03:38:51.024Z,70.57
2023-03-02T03:41:17.705Z,70.46
2023-03-02T03:43:44.246Z,70.61
2023-03-02T03:46:11.559Z,70.68
2023-03-02T03:48:38.353Z,70.71
2023-03-02T03:51:05.739Z,70.81
2023-03-02T03:53:33.405Z,70.81
2023-03-02T03:56:00.545Z,70.97
2023-03-02T03:58:27.965Z,70.81
2023-03-02T04:00:54.670Z,71.00
2023-03-02T04:03:22.131Z,71.02
2023-03-02T04:05:49.525Z,71.06
2023-03-02T04:08:16.240Z,70.82
2023-03-02T04:10:42.884Z,70.61
2023-03-02T04:13:10.755Z,70.43
2023-03-02T04:15:40.081Z,70.28
2023-03-02T04:18:08.337Z,70.37
2023-03-02T04:20:35.978Z,70.30
2023-03-02T04:23:02.652Z,70.16
2023-03-02T04:25:30.494Z,70.24
2023-03-02T04:28:02.730Z,70.31
2023-03-02T04:30:34.813Z,70.35
2023-03-02T04:33:01.962Z,70.51
2023-03-02T04:35:29.991Z,70.32
2023-03-02T04:37:56.548Z,69.99
2023-03-02T04:40:23.282Z,69.85
2023-03-02T04:42:49.928Z,69.92
2023-03-02T04:45:16.656Z,70.00
2023-03-02T04:47:43.126Z,69.77
2023-03-02T04:50:13.645Z,69.56
2023-03-02T04:52:41.105Z,69.91
2023-03-02T04:55:08.193Z,69.83
2023-03-02T04:57:34.801Z,69.73
2023-03-02T05:00:01.417Z,69.97
2023-03-02T05:02:28.063Z,69.89
2023-03-02T05:04:54.649Z,69.82
2023-03-02T05:07:21.233Z,69.86
2023-03-02T05:09:47.795Z,69.83
2023-03-02T05:12:14.457Z,69.76
2023-03-02T05:14:41.001Z,69.84
2023-03-02T05:17:07.764Z,69.74
2023-03-02T05:19:34.416Z,69.56
2023-03-02T05:22:00.914Z,69.84
2023-03-02T05:24:27.518Z,69.65
2023-03-02T05:26:54.172Z,69.72
2023-03-02T05:29:20.792Z,69.47
2023-03-02T05:31:47.861Z,69.46
2023-03-02T05:34:16.427Z,69.49
2023-03-02T05:36:44.565Z,69.62
2023-03-02T05:39:11.308Z,69.62
2023-03-02T05:41:38.154Z,69.57
2023-03-02T05:44:05.766Z,69.38
2023-03-02T05:46:32.647Z,69.51
2023-03-02T05:48:59.393Z,69.47
2023-03-02T05:51:26.009Z,69.46
2023-03-02T05:53:52.565Z,69.84
2023-03-02T05:56:19.083Z,69.87
2023-03-02T05:58:45.558Z,69.73
2023-03-02T06:01:15.198Z,69.60
2023-03-02T06:03:42.913Z,69.59
2023-03-02T06:06:09.422Z,69.71
2023-03-02T06:08:36.055Z,69.95
2023-03-02T06:11:02.592Z,69.99
2023-03-02T06:13:29.535Z,69.83
2023-03-02T06:15:59.093Z,69.96
2023-03-02T06:18:25.639Z,70.09
2023-03-02T06:20:52.105Z,70.36
2023-03-02T06:23:18.874Z,70.27
2023-03-02T06:25:45.409Z,70.38
2023-03-02T06:28:11.923Z,70.62
2023-03-02T06:30:38.477Z,70.79
2023-03-02T06:33:05.024Z,71.50
2023-03-02T06:35:31.723Z,71.80
2023-03-02T06:37:58.352Z,72.21
2023-03-02T06:40:24.860Z,72.43
2023-03-02T06:42:51.440Z,72.62
2023-03-02T06:45:18.086Z,72.83
2023-03-02T06:47:44.746Z,73.15
2023-03-02T06:50:11.813Z,73.16
2023-03-02T06:52:38.378Z,73.34
2023-03-02T06:55:05.611Z,73.63
2023-03-02T06:57:32.243Z,73.71
2023-03-02T06:59:58.879Z,73.46
2023-03-02T07:02:25.350Z,73.58
2023-03-02T07:04:51.866Z,73.61
2023-03-02T07:07:18.445Z,73.46
2023-03-02T07:09:44.946Z,73.36
2023-03-02T07:12:11.485Z,73.27
2023-03-02T07:14:40.552Z,72.92
2023-03-02T07:17:07.283Z,73.66
2023-03-02T07:19:33.857Z,73.88
2023-03-02T07:22:00.407Z,73.91
2023-03-02T07:24:26.989Z,74.16
2023-03-02T07:26:53.496Z,74.20
2023-03-02T07:29:20.018Z,74.46
2023-03-02T07:31:46.564Z,74.75
2023-03-02T07:34:13.324Z,74.96
2023-03-02T07:36:39.936Z,75.34
2023-03-02T07:39:06.781Z,75.21
2023-03-02T07:41:33.711Z,75.39
2023-03-02T07:44:00.511Z,75.70
2023-03-02T07:46:27.144Z,75.41
2023-03-02T07:48:53.710Z,75.50
2023-03-02T07:51:20.333Z,75.87
2023-03-02T07:53:46.883Z,76.16
2023-03-02T07:56:13.533Z,76.22
2023-03-02T07:58:40.125Z,76.46
2023-03-02T08:01:06.673Z,76.35
2023-03-02T08:03:33.324Z,76.64
2023-03-02T08:06:12.811Z,75.58
2023-03-02T08:08:39.745Z,76.41
2023-03-02T08:11:08.342Z,76.59
2023-03-02T08:13:34.888Z,76.65
2023-03-02T08:16:03.175Z,76.32
2023-03-02T08:18:30.882Z,76.86
2023-03-02T08:20:58.075Z,76.73
2023-03-02T08:23:25.715Z,76.69
2023-03-02T08:25:53.624Z,76.78
2023-03-02T08:28:21.916Z,76.76
2023-03-02T08:30:59.598Z,75.24
2023-03-02T08:33:27.704Z,76.85
2023-03-02T08:35:59.253Z,76.01
2023-03-02T08:38:27.007Z,76.23
2023-03-02T08:40:54.143Z,76.57
2023-03-02T08:43:22.274Z,76.71
2023-03-02T08:45:52.748Z,75.90
2023-03-02T08:48:20.626Z,76.35
2023-03-02T08:51:12.559Z,75.11
2023-03-02T08:53:41.644Z,75.84
2023-03-02T08:56:29.450Z,72.90
2023-03-02T08:58:58.242Z,74.13
2023-03-02T09:01:27.401Z,76.04
2023-03-02T09:03:54.193Z,76.10
2023-03-02T09:06:21.170Z,76.21
2023-03-02T09:08:48.223Z,76.33
2023-03-02T09:11:15.345Z,75.51
2023-03-02T09:13:42.675Z,76.11
2023-03-02T09:16:10.006Z,75.70
2023-03-02T09:18:36.854Z,76.23
2023-03-02T09:21:04.222Z,76.21
2023-03-02T09:23:31.616Z,74.82
2023-03-02T09:25:58.503Z,75.73
2023-03-02T09:28:25.339Z,75.63
2023-03-02T09:30:54.714Z,75.31
2023-03-02T09:33:21.604Z,76.52
2023-03-02T09:35:48.260Z,76.26
2023-03-02T09:38:15.290Z,75.66
2023-03-02T09:40:48.186Z,72.46
2023-03-02T09:43:26.939Z,72.44
2023-03-02T09:46:02.519Z,70.23
2023-03-02T09:48:40.574Z,69.38
2023-03-02T09:51:07.207Z,67.08
2023-03-02T09:53:44.269Z,73.27
2023-03-02T09:56:16.514Z,74.68
2023-03-02T09:58:49.564Z,73.53
2023-03-02T10:01:26.921Z,73.41
2023-03-02T10:04:06.991Z,72.42
2023-03-02T10:06:33.934Z,68.42
2023-03-02T10:09:00.653Z,72.34
2023-03-02T10:12:05.423Z,72.60
2023-03-02T10:14:39.421Z,72.34
2023-03-02T10:17:23.013Z,73.06
2023-03-02T10:20:00.486Z,70.43
2023-03-02T10:22:36.056Z,71.85
2023-03-02T10:25:16.520Z,72.11
2023-03-02T10:27:48.651Z,74.53
2023-03-02T10:30:25.564Z,69.32
2023-03-02T10:32:55.043Z,73.64
2023-03-02T10:35:24.626Z,74.23
2023-03-02T10:37:55.353Z,72.74
2023-03-02T10:40:45.988Z,71.60
2023-03-02T10:43:20.373Z,72.09
2023-03-02T10:45:59.098Z,71.97
2023-03-02T10:48:25.795Z,70.54
2023-03-02T10:50:57.510Z,68.95
2023-03-02T10:53:24.922Z,71.62
2023-03-02T10:55:53.961Z,71.27
2023-03-02T10:58:32.841Z,64.13
2023-03-02T11:01:05.810Z,68.94
2023-03-02T11:03:33.140Z,70.25
2023-03-02T11:06:16.355Z,60.25
2023-03-02T11:08:42.991Z,68.28
2023-03-02T11:11:22.881Z,66.93
2023-03-02T11:13:49.725Z,70.63
2023-03-02T11:16:19.216Z,67.70
2023-03-02T11:18:54.641Z,68.13
2023-03-02T11:21:33.115Z,68.02
2023-03-02T11:24:10.327Z,68.24
2023-03-02T11:26:52.118Z,72.08
2023-03-02T11:29:25.469Z,69.68
2023-03-02T11:31:59.941Z,66.65
2023-03-02T11:34:55.470Z,63.67
2023-03-02T11:37:45.112Z,59.67
2023-03-02T11:40:26.458Z,63.42
2023-03-02T11:42:56.967Z,64.68
2023-03-02T11:45:36.363Z,67.74
2023-03-02T11:48:05.653Z,69.21
2023-03-02T11:50:37.216Z,64.74
2023-03-02T11:53:11.720Z,67.24
2023-03-02T11:55:44.431Z,66.52
2023-03-02T11:58:18.775Z,65.53
2023-03-02T12:00:47.534Z,68.97
2023-03-02T12:03:16.682Z,68.41
2023-03-02T12:05:51.071Z,65.61
2023-03-02T12:08:20.446Z,63.50
2023-03-02T12:11:00.419Z,65.63
2023-03-02T12:13:40.795Z,62.48
2023-03-02T12:16:34.794Z,65.11
2023-03-02T12:19:16.582Z,58.59
2023-03-02T12:22:07.308Z,62.59
2023-03-02T12:24:37.009Z,66.86
2023-03-02T12:27:07.907Z,67.31
2023-03-02T12:29:49.762Z,64.92
2023-03-02T12:32:19.116Z,64.76
2023-03-02T12:34:54.917Z,58.15
2023-03-02T12:37:24.242Z,58.09
2023-03-02T12:40:12.742Z,62.06
2023-03-02T12:43:12.833Z,62.95
2023-03-02T12:46:07.074Z,67.22
2023-03-02T12:48:52.719Z,57.32
2023-03-02T12:51:25.872Z,56.18
2023-03-02T12:54:06.804Z,52.38
2023-03-02T12:56:34.221Z,60.42
2023-03-02T12:59:00.985Z,63.33
2023-03-02T13:01:30.438Z,60.95
2023-03-02T13:03:57.801Z,64.00
2023-03-02T13:06:29.800Z,62.50
2023-03-02T13:08:59.162Z,60.30
2023-03-02T13:11:33.013Z,62.23
2023-03-02T13:14:01.724Z,63.61
2023-03-02T13:16:31.375Z,63.25
2023-03-02T13:19:01.172Z,63.42
2023-03-02T13:21:34.040Z,61.20
2023-03-02T13:24:01.747Z,65.79
2023-03-02T13:26:34.523Z,61.86
2023-03-02T13:29:06.046Z,63.02
2023-03-02T13:31:34.413Z,64.25
2023-03-02T13:34:01.600Z,65.43
2023-03-02T13:36:36.607Z,61.59
2023-03-02T13:39:05.858Z,64.60
2023-03-02T13:41:35.095Z,61.35
2023-03-02T13:44:19.951Z,62.95
2023-03-02T13:46:47.179Z,62.79
2023-03-02T13:49:14.088Z,63.81
2023-03-02T13:51:47.086Z,57.15
2023-03-02T13:54:22.500Z,58.17
2023-03-02T13:56:50.368Z,60.68
2023-03-02T13:59:19.154Z,60.91
2023-03-02T14:01:46.220Z,61.32
2023-03-02T14:04:15.185Z,61.93
2023-03-02T14:06:43.411Z,63.25
2023-03-02T14:09:10.113Z,58.02
2023-03-02T14:11:40.282Z,56.91
2023-03-02T14:14:07.826Z,56.51
2023-03-02T14:16:34.689Z,59.20
2023-03-02T14:19:02.077Z,58.88
2023-03-02T14:21:29.085Z,59.64
2023-03-02T14:23:56.103Z,59.54
2023-03-02T14:26:34.177Z,51.41
2023-03-02T14:29:12.537Z,56.08
2023-03-02T14:31:39.066Z,60.63
2023-03-02T14:34:05.605Z,55.04
2023-03-02T14:36:34.096Z,51.71
2023-03-02T14:39:05.645Z,51.36
2023-03-02T14:41:38.327Z,50.88
2023-03-02T14:44:10.777Z,53.04
2023-03-02T14:46:37.394Z,55.52
2023-03-02T14:49:04.050Z,57.33
2023-03-02T14:51:34.908Z,55.48
2023-03-02T14:54:05.646Z,57.92
2023-03-02T14:56:32.641Z,59.72
2023-03-02T14:59:00.085Z,60.41
2023-03-02T15:01:26.754Z,60.67
2023-03-02T15:03:53.479Z,61.14
2023-03-02T15:06:28.685Z,56.50
2023-03-02T15:08:57.572Z,60.65
2023-03-02T15:11:25.170Z,61.72
2023-03-02T15:13:51.759Z,61.45
2023-03-02T15:16:18.486Z,61.63
2023-03-02T15:18:45.015Z,61.70
2023-03-02T15:21:16.971Z,55.12
2023-03-02T15:23:44.249Z,60.83
2023-03-02T15:26:12.091Z,59.77
2023-03-02T15:28:39.242Z,60.25
2023-03-02T15:31:07.471Z,59.65
2023-03-02T15:33:34.083Z,56.20
2023-03-02T15:36:00.670Z,61.16
2023-03-02T15:38:27.387Z,61.53
2023-03-02T15:40:53.867Z,61.83
2023-03-02T15:43:20.489Z,61.62
2023-03-02T15:45:46.989Z,60.47
2023-03-02T15:48:13.773Z,60.88
2023-03-02T15:50:40.758Z,60.67
2023-03-02T15:53:07.450Z,61.50
2023-03-02T15:55:33.976Z,60.90
2023-03-02T15:58:00.536Z,60.74
2023-03-02T16:00:27.280Z,60.89
2023-03-02T16:02:53.916Z,61.13
2023-03-02T16:05:20.519Z,61.38
2023-03-02T16:07:47.026Z,61.58
2023-03-02T16:10:13.605Z,62.10
2023-03-02T16:12:40.145Z,61.20
2023-03-02T16:15:08.326Z,60.45
2023-03-02T16:17:34.879Z,61.46
2023-03-02T16:20:01.463Z,61.38
2023-03-02T16:22:28.083Z,61.79
2023-03-02T16:24:54.597Z,61.18
2023-03-02T16:27:21.096Z,61.43
2023-03-02T16:29:47.581Z,60.59
2023-03-02T16:32:14.236Z,60.73
2023-03-02T16:34:40.788Z,61.17
2023-03-02T16:37:07.326Z,61.46
2023-03-02T16:39:33.891Z,61.46
2023-03-02T16:42:00.502Z,61.16
2023-03-02T16:44:27.030Z,61.17
2023-03-02T16:46:54.803Z,61.33
2023-03-02T16:49:22.937Z,61.83
2023-03-02T16:51:49.496Z,62.00
2023-03-02T16:54:16.991Z,61.79
2023-03-02T16:56:43.964Z,62.58
2023-03-02T16:59:11.190Z,62.58
2023-03-02T17:01:37.831Z,62.52
2023-03-02T17:04:06.017Z,62.69
2023-03-02T17:06:32.893Z,62.60
2023-03-02T17:08:59.613Z,62.80
2023-03-02T17:11:26.236Z,63.10
2023-03-02T17:13:52.725Z,63.13
2023-03-02T17:16:19.208Z,63.36
2023-03-02T17:18:45.749Z,63.31
2023-03-02T17:21:16.802Z,63.00
2023-03-02T17:23:43.650Z,63.34
2023-03-02T17:26:10.251Z,63.61
2023-03-02T17:28:36.758Z,63.86
2023-03-02T17:31:04.476Z,64.07
2023-03-02T17:33:31.344Z,63.83
2023-03-02T17:35:57.816Z,64.17
2023-03-02T17:38:24.380Z,63.99
2023-03-02T17:40:50.903Z,64.41
2023-03-02T17:43:17.596Z,64.37
2023-03-02T17:45:44.177Z,64.60
2023-03-02T17:48:10.671Z,64.59
2023-03-02T17:50:37.270Z,64.85
2023-03-02T17:53:03.900Z,64.48
2023-03-02T17:55:30.758Z,65.02
2023-03-02T17:57:57.528Z,65.11
2023-03-02T18:00:24.795Z,65.41
2023-03-02T18:02:52.488Z,65.27
2023-03-02T18:05:19.352Z,65.41
2023-03-02T18:07:45.836Z,65.62
2023-03-02T18:10:13.743Z,65.86
2023-03-02T18:12:40.542Z,66.04
2023-03-02T18:15:07.770Z,66.20
2023-03-02T18:17:34.269Z,66.24
2023-03-02T18:20:00.828Z,66.47
2023-03-02T18:22:27.352Z,66.35
2023-03-02T18:24:53.816Z,66.63
2023-03-02T18:27:20.514Z,66.57
2023-03-02T18:29:47.053Z,66.76
2023-03-02T18:32:14.246Z,66.81
2023-03-02T18:34:40.978Z,66.99
2023-03-02T18:37:07.607Z,67.01
2023-03-02T18:39:34.776Z,67.16
2023-03-02T18:42:01.289Z,67.39
2023-03-02T18:44:27.828Z,67.26
2023-03-02T18:46:54.878Z,67.61
2023-03-02T18:49:21.398Z,67.69
2023-03-02T18:51:48.000Z,67.50
2023-03-02T18:54:14.681Z,67.61
2023-03-02T18:56:41.333Z,67.76
2023-03-02T18:59:07.921Z,67.81
2023-03-02T19:01:34.401Z,67.88
2023-03-02T19:04:00.951Z,67.83
2023-03-02T19:06:28.244Z,68.17
2023-03-02T19:08:55.084Z,68.14
2023-03-02T19:11:21.682Z,68.14
2023-03-02T19:13:48.506Z,68.28
2023-03-02T19:16:15.090Z,68.32
2023-03-02T19:18:42.348Z,68.33
2023-03-02T19:21:09.004Z,68.27
2023-03-02T19:23:35.681Z,68.59
2023-03-02T19:26:02.315Z,68.60
2023-03-02T19:28:28.919Z,68.55
2023-03-02T19:30:55.543Z,68.68
2023-03-02T19:33:22.077Z,68.88
2023-03-02T19:35:48.694Z,68.94
2023-03-02T19:38:15.196Z,68.98
2023-03-02T19:40:41.881Z,68.95
2023-03-02T19:43:08.381Z,69.09
2023-03-02T19:45:35.072Z,68.92
2023-03-02T19:48:02.690Z,68.92
2023-03-02T19:50:29.754Z,69.09
2023-03-02T19:52:56.769Z,69.02
2023-03-02T19:55:24.281Z,69.14
2023-03-02T19:57:51.360Z,69.13
2023-03-02T20:00:18.719Z,69.13
2023-03-02T20:02:46.465Z,68.98
2023-03-02T20:05:13.431Z,69.26
2023-03-02T20:07:42.135Z,69.24
2023-03-02T20:10:11.147Z,69.37
2023-03-02T20:12:37.781Z,69.19
2023-03-02T20:15:06.089Z,69.38
2023-03-02T20:17:32.713Z,69.33
2023-03-02T20:19:59.279Z,69.44
2023-03-02T20:22:25.884Z,69.63
2023-03-02T20:24:52.749Z,69.70
2023-03-02T20:27:19.282Z,69.48
2023-03-02T20:29:45.896Z,69.50
2023-03-02T20:32:13.511Z,69.40
2023-03-02T20:34:41.736Z,69.67
2023-03-02T20:37:08.584Z,69.67
2023-03-02T20:39:38.192Z,69.42
2023-03-02T20:42:06.269Z,69.65
2023-03-02T20:44:32.670Z,68.79
2023-03-02T20:47:02.702Z,69.40
2023-03-02T20:49:30.038Z,69.42
2023-03-02T20:51:58.621Z,69.50
2023-03-02T20:54:32.033Z,69.22
2023-03-02T20:56:58.829Z,69.56
2023-03-02T20:59:26.476Z,69.71
2023-03-02T21:01:53.546Z,69.60
2023-03-02T21:04:20.848Z,69.70
2023-03-02T21:06:47.636Z,69.88
2023-03-02T21:09:14.887Z,69.67
2023-03-02T21:11:41.447Z,69.74
2023-03-02T21:14:08.206Z,69.67
2023-03-02T21:16:38.714Z,69.47
2023-03-02T21:19:07.841Z,69.61
2023-03-02T21:21:41.456Z,69.75
2023-03-02T21:24:10.611Z,69.71
2023-03-02T21:26:37.900Z,69.54
2023-03-02T21:29:05.855Z,69.63
2023-03-02T21:31:32.904Z,69.71
2023-03-02T21:33:59.633Z,69.75
2023-03-02T21:36:26.754Z,69.92
2023-03-02T21:38:53.292Z,70.17
2023-03-02T21:41:19.939Z,70.18
2023-03-02T21:43:46.480Z,70.08
2023-03-02T21:46:15.729Z,70.08
2023-03-02T21:48:42.392Z,70.28
2023-03-02T21:51:11.467Z,70.09
2023-03-02T21:53:37.986Z,70.41
2023-03-02T21:56:04.954Z,70.63
2023-03-02T21:58:31.487Z,70.49
2023-03-02T22:00:58.049Z,70.51
2023-03-02T22:03:24.685Z,70.75
2023-03-02T22:05:51.305Z,70.78
2023-03-02T22:08:20.178Z,70.59
2023-03-02T22:10:49.643Z,70.80
2023-03-02T22:13:27.016Z,70.17
2023-03-02T22:16:11.451Z,70.29
2023-03-02T22:18:38.090Z,70.55
2023-03-02T22:21:38.477Z,69.59
2023-03-02T22:24:11.199Z,69.85
2023-03-02T22:26:44.098Z,70.45
2023-03-02T22:29:18.829Z,70.15
2023-03-02T22:31:47.693Z,70.44
2023-03-02T22:34:20.427Z,70.19
2023-03-02T22:36:47.290Z,70.21
2023-03-02T22:39:30.524Z,69.98
2023-03-02T22:42:09.122Z,69.81
2023-03-02T22:44:35.942Z,70.41
2023-03-02T22:47:12.300Z,70.22
2023-03-02T22:49:38.918Z,70.48
2023-03-02T22:52:15.757Z,70.10
2023-03-02T22:54:42.240Z,70.23
2023-03-02T22:57:29.447Z,69.93
2023-03-02T23:00:07.693Z,69.92
2023-03-02T23:02:40.329Z,70.11
2023-03-02T23:05:39.421Z,69.99
2023-03-02T23:08:25.568Z,69.97
2023-03-02T23:10:54.215Z,70.57
2023-03-02T23:13:25.090Z,70.46
2023-03-02T23:15:53.044Z,70.53
2023-03-02T23:18:23.912Z,70.49
2023-03-02T23:20:51.588Z,70.82
2023-03-02T23:23:19.242Z,70.69
2023-03-02T23:25:46.540Z,70.68
2023-03-02T23:28:13.052Z,70.69
2023-03-02T23:30:39.924Z,70.87
2023-03-02T23:33:07.283Z,70.69
2023-03-02T23:35:34.446Z,70.97
2023-03-02T23:38:01.007Z,70.93
2023-03-02T23:40:28.774Z,70.71
2023-03-02T23:42:55.404Z,70.95
2023-03-02T23:45:21.913Z,70.88
2023-03-02T23:47:48.410Z,70.90
2023-03-02T23:50:14.986Z,70.86
2023-03-02T23:52:41.781Z,70.68
2023-03-02T23:55:09.308Z,70.80
2023-03-02T23:57:35.838Z,70.73
